createdAt,value
2019-01-13T00:00:11.696Z,16.37
2019-01-13T00:02:40.296Z,17.60
2019-01-13T00:05:08.860Z,19.27
2019-01-13T00:07:37.239Z,19.40
2019-01-13T00:10:06.787Z,13.70
2019-01-13T00:12:35.632Z,13.73
2019-01-13T00:15:06.206Z,16.83
2019-01-13T00:17:34.600Z,18.13
2019-01-13T00:20:03.034Z,14.63
2019-01-13T00:22:31.430Z,21.70
2019-01-13T00:24:59.794Z,15.77
2019-01-13T00:27:28.207Z,19.43
2019-01-13T00:29:56.580Z,19.07
2019-01-13T00:32:24.997Z,19.17
2019-01-13T00:34:53.403Z,19.10
2019-01-13T00:37:21.779Z,24.97
2019-01-13T00:39:50.183Z,20.50
2019-01-13T00:42:18.558Z,21.60
2019-01-13T00:44:47.025Z,17.93
2019-01-13T00:47:15.395Z,27.23
2019-01-13T00:49:43.803Z,21.53
2019-01-13T00:52:12.183Z,27.90
2019-01-13T00:54:40.583Z,21.60
2019-01-13T00:57:08.996Z,27.70
2019-01-13T00:59:37.366Z,22.20
2019-01-13T01:02:05.772Z,23.30
2019-01-13T01:04:34.155Z,28.10
2019-01-13T01:07:02.574Z,33.87
2019-01-13T01:09:30.971Z,22.80
2019-01-13T01:11:59.415Z,21.77
2019-01-13T01:14:27.814Z,25.50
2019-01-13T01:16:56.207Z,28.40
2019-01-13T01:19:24.618Z,29.40
2019-01-13T01:21:53.004Z,29.57
2019-01-13T01:24:21.474Z,26.10
2019-01-13T01:26:49.885Z,31.37
2019-01-13T01:29:18.322Z,25.40
2019-01-13T01:31:46.731Z,22.07
2019-01-13T01:34:15.126Z,30.87
2019-01-13T01:36:43.534Z,26.63
2019-01-13T01:39:11.947Z,27.10
2019-01-13T01:41:40.330Z,27.63
2019-01-13T01:44:08.734Z,23.00
2019-01-13T01:46:37.109Z,26.27
2019-01-13T01:49:05.522Z,25.30
2019-01-13T01:51:33.899Z,21.60
2019-01-13T01:54:02.311Z,19.93
2019-01-13T01:56:30.725Z,18.37
2019-01-13T01:58:59.081Z,22.80
2019-01-13T02:01:27.481Z,24.23
2019-01-13T02:03:55.875Z,24.67
2019-01-13T02:06:24.305Z,27.23
2019-01-13T02:08:52.687Z,30.80
2019-01-13T02:11:21.097Z,34.63
2019-01-13T02:13:49.489Z,33.37
2019-01-13T02:16:17.898Z,32.27
2019-01-13T02:18:46.372Z,29.93
2019-01-13T02:21:14.772Z,29.07
2019-01-13T02:23:43.172Z,29.27
2019-01-13T02:26:12.535Z,25.30
2019-01-13T02:28:40.934Z,31.70
2019-01-13T02:31:09.314Z,27.50
2019-01-13T02:33:37.707Z,24.33
2019-01-13T02:36:25.542Z,24.33
2019-01-13T02:38:53.917Z,23.13
2019-01-13T02:41:22.319Z,27.03
2019-01-13T02:43:50.712Z,19.23
2019-01-13T02:46:19.126Z,24.30
2019-01-13T02:48:47.503Z,22.43
2019-01-13T02:51:15.927Z,22.53
2019-01-13T02:53:44.275Z,19.73
2019-01-13T02:56:12.670Z,23.87
2019-01-13T02:58:41.071Z,19.47
2019-01-13T03:01:09.483Z,20.17
2019-01-13T03:03:37.854Z,21.67
2019-01-13T03:06:06.227Z,26.70
2019-01-13T03:08:34.632Z,23.80
2019-01-13T03:11:03.010Z,21.43
2019-01-13T03:13:31.429Z,19.70
2019-01-13T03:15:59.797Z,19.23
2019-01-13T03:18:28.169Z,19.63
2019-01-13T03:20:56.584Z,21.10
2019-01-13T03:23:24.949Z,14.20
2019-01-13T03:25:53.340Z,15.03
2019-01-13T03:28:21.707Z,24.10
2019-01-13T03:30:50.117Z,18.97
2019-01-13T03:33:18.511Z,24.90
2019-01-13T03:35:46.907Z,23.27
2019-01-13T03:38:15.305Z,30.83
2019-01-13T03:40:43.699Z,30.43
2019-01-13T03:43:12.161Z,28.00
2019-01-13T03:45:40.566Z,26.43
2019-01-13T03:48:08.930Z,30.90
2019-01-13T03:50:37.351Z,27.83
2019-01-13T03:53:05.734Z,33.67
2019-01-13T03:55:34.140Z,31.53
2019-01-13T03:58:02.524Z,29.57
2019-01-13T04:00:30.928Z,35.73
2019-01-13T04:02:59.334Z,25.87
2019-01-13T04:05:27.710Z,30.23
2019-01-13T04:07:56.112Z,29.13
2019-01-13T04:10:24.499Z,35.40
2019-01-13T04:12:52.895Z,29.97
2019-01-13T04:15:41.866Z,43.87
2019-01-13T04:18:10.314Z,42.40
2019-01-13T04:20:38.686Z,31.00
2019-01-13T04:23:07.081Z,33.43
2019-01-13T04:25:35.448Z,28.67
2019-01-13T04:28:03.847Z,29.70
2019-01-13T04:30:32.256Z,37.77
2019-01-13T04:33:00.655Z,32.93
2019-01-13T04:35:29.056Z,42.60
2019-01-13T04:37:57.435Z,39.43
2019-01-13T04:40:25.848Z,35.90
2019-01-13T04:42:54.218Z,36.53
2019-01-13T04:45:22.608Z,33.63
2019-01-13T04:47:51.035Z,34.33
2019-01-13T04:50:19.388Z,32.60
2019-01-13T04:52:47.800Z,39.50
2019-01-13T04:55:16.208Z,41.73
2019-01-13T04:57:44.588Z,35.10
2019-01-13T05:00:15.922Z,34.97
2019-01-13T05:02:44.358Z,36.50
2019-01-13T05:05:12.762Z,34.33
2019-01-13T05:07:41.142Z,38.43
2019-01-13T05:10:13.038Z,26.37
2019-01-13T05:12:41.416Z,33.20
2019-01-13T05:15:09.824Z,31.37
2019-01-13T05:17:38.258Z,33.77
2019-01-13T05:20:09.997Z,33.00
2019-01-13T05:22:38.403Z,40.53
2019-01-13T05:25:07.526Z,32.43
2019-01-13T05:27:35.900Z,35.67
2019-01-13T05:30:10.391Z,33.17
2019-01-13T05:32:38.781Z,34.07
2019-01-13T05:35:07.173Z,31.33
2019-01-13T05:37:35.575Z,33.80
2019-01-13T05:40:06.789Z,30.47
2019-01-13T05:42:35.199Z,33.00
2019-01-13T05:45:04.541Z,28.00
2019-01-13T05:47:32.926Z,23.27
2019-01-13T05:50:01.440Z,30.67
2019-01-13T05:52:29.827Z,30.53
2019-01-13T05:54:58.208Z,25.17
2019-01-13T05:57:26.602Z,30.00
2019-01-13T05:59:54.998Z,32.60
2019-01-13T06:02:23.417Z,32.27
2019-01-13T06:04:51.792Z,28.37
2019-01-13T06:07:20.179Z,30.27
2019-01-13T06:09:48.550Z,27.87
2019-01-13T06:12:16.955Z,30.50
2019-01-13T06:14:45.336Z,25.63
2019-01-13T06:17:13.718Z,31.27
2019-01-13T06:19:42.123Z,20.57
2019-01-13T06:22:10.494Z,26.13
2019-01-13T06:24:38.859Z,30.70
2019-01-13T06:27:07.274Z,26.27
2019-01-13T06:29:35.659Z,31.93
2019-01-13T06:32:04.054Z,26.80
2019-01-13T06:34:32.435Z,21.70
2019-01-13T06:37:00.849Z,27.70
2019-01-13T06:39:29.226Z,25.20
2019-01-13T06:41:57.631Z,29.07
2019-01-13T06:44:26.023Z,19.43
2019-01-13T06:46:54.436Z,25.70
2019-01-13T06:49:23.067Z,22.70
2019-01-13T06:51:51.480Z,20.53
2019-01-13T06:54:19.859Z,23.30
2019-01-13T06:56:48.262Z,23.63
2019-01-13T06:59:16.719Z,19.27
2019-01-13T07:01:45.105Z,23.87
2019-01-13T07:04:13.520Z,27.63
2019-01-13T07:06:41.890Z,22.77
2019-01-13T07:09:10.285Z,24.60
2019-01-13T07:11:38.675Z,22.33
2019-01-13T07:14:07.073Z,24.93
2019-01-13T07:16:35.495Z,26.60
2019-01-13T07:19:03.888Z,26.97
2019-01-13T07:21:32.292Z,22.87
2019-01-13T07:24:00.663Z,24.37
2019-01-13T07:26:29.071Z,21.67
2019-01-13T07:28:57.450Z,25.50
2019-01-13T07:31:25.860Z,22.00
2019-01-13T07:33:54.238Z,21.97
2019-01-13T07:36:22.637Z,23.37
2019-01-13T07:38:51.010Z,19.37
2019-01-13T07:41:19.424Z,20.20
2019-01-13T07:43:47.794Z,22.67
2019-01-13T07:46:16.204Z,20.67
2019-01-13T07:48:44.613Z,19.33
2019-01-13T07:51:12.993Z,21.37
2019-01-13T07:53:41.393Z,21.90
2019-01-13T07:56:09.877Z,17.43
2019-01-13T07:58:38.270Z,22.83
2019-01-13T08:01:06.716Z,21.10
2019-01-13T08:03:35.116Z,24.13
2019-01-13T08:06:03.509Z,24.40
2019-01-13T08:08:31.897Z,22.30
2019-01-13T08:11:00.297Z,21.70
2019-01-13T08:13:28.723Z,25.20
2019-01-13T08:15:57.309Z,21.73
2019-01-13T08:18:25.688Z,19.63
2019-01-13T08:20:54.086Z,25.50
2019-01-13T08:23:22.473Z,24.63
2019-01-13T08:25:50.875Z,21.53
2019-01-13T08:28:19.287Z,19.77
2019-01-13T08:30:47.669Z,21.67
2019-01-13T08:33:16.085Z,26.33
2019-01-13T08:35:44.488Z,15.30
2019-01-13T08:38:12.875Z,21.20
2019-01-13T08:40:41.355Z,22.33
2019-01-13T08:43:09.731Z,23.93
2019-01-13T08:45:38.144Z,24.60
2019-01-13T08:48:06.534Z,29.80
2019-01-13T08:50:34.953Z,19.23
2019-01-13T08:53:03.366Z,23.13
2019-01-13T08:55:31.767Z,17.70
2019-01-13T08:58:00.172Z,27.60
2019-01-13T09:00:29.906Z,20.67
2019-01-13T09:02:58.985Z,20.77
2019-01-13T09:05:27.492Z,22.57
2019-01-13T09:07:55.904Z,20.90
2019-01-13T09:10:24.307Z,14.37
2019-01-13T09:12:56.676Z,18.73
2019-01-13T09:15:24.468Z,16.93
2019-01-13T09:17:52.891Z,19.80
2019-01-13T09:20:26.981Z,18.33
2019-01-13T09:22:55.824Z,17.03
2019-01-13T09:25:24.242Z,13.97
2019-01-13T09:27:52.646Z,23.80
2019-01-13T09:30:23.858Z,19.20
2019-01-13T09:32:52.240Z,21.17
2019-01-13T09:35:20.624Z,20.60
2019-01-13T09:37:49.107Z,17.47
2019-01-13T09:40:22.897Z,17.30
2019-01-13T09:42:51.277Z,18.87
2019-01-13T09:45:19.665Z,16.53
2019-01-13T09:47:48.148Z,15.80
2019-01-13T09:50:18.774Z,19.17
2019-01-13T09:52:47.185Z,23.87
2019-01-13T09:55:17.527Z,18.70
2019-01-13T09:57:45.927Z,22.67
2019-01-13T10:00:23.574Z,23.23
2019-01-13T10:02:51.963Z,26.80
2019-01-13T10:05:22.372Z,13.80
2019-01-13T10:07:50.742Z,17.17
2019-01-13T10:10:19.147Z,25.37
2019-01-13T10:12:47.542Z,16.27
2019-01-13T10:15:18.488Z,19.03
2019-01-13T10:17:46.988Z,17.37
2019-01-13T10:20:15.908Z,20.03
2019-01-13T10:22:44.280Z,15.17
2019-01-13T10:25:12.688Z,22.13
2019-01-13T10:27:41.082Z,20.60
2019-01-13T10:30:12.868Z,21.80
2019-01-13T10:32:41.275Z,25.97
2019-01-13T10:35:10.337Z,21.23
2019-01-13T10:37:38.794Z,27.13
2019-01-13T10:40:10.685Z,26.40
2019-01-13T10:42:39.083Z,21.67
2019-01-13T10:45:10.710Z,25.23
2019-01-13T10:47:39.126Z,20.37
2019-01-13T10:50:10.777Z,19.43
2019-01-13T10:52:39.367Z,24.73
2019-01-13T10:55:08.248Z,21.63
2019-01-13T10:57:36.593Z,17.33
2019-01-13T11:00:16.795Z,24.83
2019-01-13T11:02:45.180Z,16.53
2019-01-13T11:05:13.657Z,19.47
2019-01-13T11:07:42.103Z,21.67
2019-01-13T11:10:13.327Z,19.57
2019-01-13T11:12:41.739Z,14.97
2019-01-13T11:15:12.567Z,15.97
2019-01-13T11:17:40.954Z,17.30
2019-01-13T11:20:12.611Z,17.67
2019-01-13T11:22:41.015Z,24.53
2019-01-13T11:25:10.135Z,16.07
2019-01-13T11:27:38.546Z,22.63
2019-01-13T11:30:12.678Z,16.77
2019-01-13T11:32:41.078Z,16.73
2019-01-13T11:35:10.926Z,21.33
2019-01-13T11:37:39.298Z,19.03
2019-01-13T11:40:10.900Z,21.97
2019-01-13T11:42:39.369Z,19.07
2019-01-13T11:45:09.424Z,22.33
2019-01-13T11:47:37.827Z,19.63
2019-01-13T11:50:09.555Z,14.23
2019-01-13T11:52:38.042Z,22.77
2019-01-13T11:55:09.334Z,18.87
2019-01-13T11:57:37.754Z,16.30
2019-01-13T12:00:15.253Z,17.33
2019-01-13T12:02:43.657Z,16.57
2019-01-13T12:05:12.974Z,11.10
2019-01-13T12:07:41.379Z,15.57
2019-01-13T12:10:14.001Z,15.90
2019-01-13T12:12:42.475Z,13.33
2019-01-13T12:15:13.103Z,17.37
2019-01-13T12:17:41.558Z,13.97
2019-01-13T12:20:13.192Z,17.50
2019-01-13T12:22:41.574Z,15.73
2019-01-13T12:25:13.044Z,17.33
2019-01-13T12:27:41.419Z,21.60
2019-01-13T12:30:21.425Z,15.83
2019-01-13T12:32:49.826Z,26.00
2019-01-13T12:35:18.218Z,18.83
2019-01-13T12:37:46.622Z,15.50
2019-01-13T12:40:17.793Z,22.47
2019-01-13T12:42:46.776Z,23.27
2019-01-13T12:45:17.491Z,16.87
2019-01-13T12:47:45.889Z,14.33
2019-01-13T12:50:17.395Z,16.00
2019-01-13T12:52:45.803Z,17.07
2019-01-13T12:55:14.174Z,14.77
2019-01-13T12:57:42.586Z,22.97
2019-01-13T13:00:13.874Z,20.60
2019-01-13T13:02:42.259Z,19.57
2019-01-13T13:05:12.405Z,17.53
2019-01-13T13:07:40.819Z,23.93
2019-01-13T13:10:18.255Z,17.77
2019-01-13T13:12:46.721Z,20.73
2019-01-13T13:15:15.100Z,19.60
2019-01-13T13:17:43.517Z,16.33
2019-01-13T13:20:14.537Z,14.57
2019-01-13T13:22:42.931Z,22.30
2019-01-13T13:25:12.762Z,15.07
2019-01-13T13:27:41.157Z,31.43
2019-01-13T13:30:15.348Z,21.30
2019-01-13T13:32:43.783Z,23.97
2019-01-13T13:35:13.867Z,20.93
2019-01-13T13:37:42.254Z,19.83
2019-01-13T13:40:13.867Z,20.67
2019-01-13T13:42:42.211Z,18.63
2019-01-13T13:45:10.584Z,21.70
2019-01-13T13:47:38.995Z,21.77
2019-01-13T13:50:10.637Z,21.57
2019-01-13T13:52:39.038Z,20.17
2019-01-13T13:55:09.158Z,20.27
2019-01-13T13:57:37.607Z,24.00
2019-01-13T14:00:15.226Z,18.27
2019-01-13T14:02:43.630Z,18.40
2019-01-13T14:05:31.451Z,22.00
2019-01-13T14:07:59.845Z,22.33
2019-01-13T14:10:34.417Z,20.87
2019-01-13T14:13:02.814Z,24.93
2019-01-13T14:15:31.208Z,17.27
2019-01-13T14:17:59.594Z,20.43
2019-01-13T14:20:28.204Z,25.77
2019-01-13T14:22:56.583Z,16.57
2019-01-13T14:25:24.964Z,12.67
2019-01-13T14:27:53.372Z,21.77
2019-01-13T14:30:27.011Z,20.80
2019-01-13T14:32:55.825Z,15.63
2019-01-13T14:35:24.228Z,20.20
2019-01-13T14:37:52.633Z,15.00
2019-01-13T14:40:22.747Z,17.93
2019-01-13T14:42:51.223Z,13.60
2019-01-13T14:45:21.739Z,17.43
2019-01-13T14:47:50.166Z,21.43
2019-01-13T14:50:20.388Z,16.63
2019-01-13T14:52:48.916Z,18.57
2019-01-13T14:55:17.349Z,16.43
2019-01-13T14:57:45.715Z,17.13
2019-01-13T15:00:23.179Z,16.90
2019-01-13T15:02:51.546Z,23.57
2019-01-13T15:05:19.947Z,17.20
2019-01-13T15:07:48.330Z,11.90
2019-01-13T15:10:19.040Z,12.10
2019-01-13T15:12:47.441Z,19.30
2019-01-13T15:15:16.112Z,13.77
2019-01-13T15:17:44.490Z,14.47
2019-01-13T15:20:15.040Z,14.10
2019-01-13T15:22:43.426Z,20.53
2019-01-13T15:25:14.890Z,20.43
2019-01-13T15:27:43.293Z,15.00
2019-01-13T15:30:14.934Z,13.90
2019-01-13T15:32:43.592Z,19.47
2019-01-13T15:35:11.974Z,17.47
2019-01-13T15:37:40.363Z,17.07
2019-01-13T15:40:22.460Z,19.43
2019-01-13T15:42:50.859Z,17.17
2019-01-13T15:45:20.172Z,19.50
2019-01-13T15:47:48.738Z,22.57
2019-01-13T15:50:22.960Z,23.60
2019-01-13T15:52:51.390Z,17.07
2019-01-13T15:55:19.746Z,16.83
2019-01-13T15:57:48.160Z,16.53
2019-01-13T16:00:22.663Z,18.57
2019-01-13T16:02:51.041Z,20.67
2019-01-13T16:05:20.442Z,20.33
2019-01-13T16:07:48.890Z,17.40
2019-01-13T16:10:19.439Z,24.93
2019-01-13T16:12:47.819Z,20.27
2019-01-13T16:15:16.532Z,18.30
2019-01-13T16:17:44.972Z,21.70
2019-01-13T16:20:25.108Z,17.37
2019-01-13T16:22:53.439Z,18.17
2019-01-13T16:25:21.924Z,16.67
2019-01-13T16:27:50.371Z,19.50
2019-01-13T16:30:24.175Z,18.07
2019-01-13T16:32:52.587Z,21.80
2019-01-13T16:35:20.970Z,19.60
2019-01-13T16:37:49.377Z,18.83
2019-01-13T16:40:19.800Z,19.83
2019-01-13T16:42:48.348Z,14.27
2019-01-13T16:45:17.589Z,18.00
2019-01-13T16:47:46.716Z,18.73
2019-01-13T16:50:23.671Z,19.43
2019-01-13T16:52:53.415Z,17.73
2019-01-13T16:55:22.431Z,14.50
2019-01-13T16:57:50.773Z,15.63
2019-01-13T17:00:21.792Z,20.20
2019-01-13T17:02:50.160Z,14.60
2019-01-13T17:05:19.510Z,15.70
2019-01-13T17:07:48.076Z,14.83
2019-01-13T17:10:18.211Z,17.53
2019-01-13T17:12:46.597Z,18.23
2019-01-13T17:15:17.169Z,17.70
2019-01-13T17:17:45.568Z,19.30
2019-01-13T17:20:21.510Z,15.97
2019-01-13T17:22:49.906Z,21.87
2019-01-13T17:25:21.910Z,24.07
2019-01-13T17:27:50.343Z,21.03
2019-01-13T17:30:20.940Z,20.10
2019-01-13T17:32:49.370Z,14.63
2019-01-13T17:35:17.779Z,12.70
2019-01-13T17:37:46.196Z,23.67
2019-01-13T17:40:16.921Z,18.07
2019-01-13T17:42:45.324Z,22.30
2019-01-13T17:45:15.744Z,16.03
2019-01-13T17:47:44.714Z,26.83
2019-01-13T17:50:15.713Z,19.13
2019-01-13T17:52:44.092Z,23.53
2019-01-13T17:55:16.724Z,21.50
2019-01-13T17:57:45.193Z,17.00
2019-01-13T18:00:31.343Z,9.93
2019-01-13T18:03:08.726Z,14.07
2019-01-13T18:05:37.185Z,10.80
2019-01-13T18:08:05.622Z,12.10
2019-01-13T18:10:34.000Z,13.03
2019-01-13T18:13:02.458Z,9.53
2019-01-13T18:15:30.828Z,24.87
2019-01-13T18:17:59.220Z,19.30
2019-01-13T18:20:27.597Z,21.57
2019-01-13T18:22:56.006Z,22.13
2019-01-13T18:25:24.389Z,22.00
2019-01-13T18:27:52.816Z,17.43
2019-01-13T18:30:23.880Z,25.97
2019-01-13T18:32:52.258Z,20.00
2019-01-13T18:35:22.013Z,14.00
2019-01-13T18:37:50.388Z,23.23
2019-01-13T18:40:22.856Z,18.90
2019-01-13T18:42:51.244Z,24.67
2019-01-13T18:45:19.660Z,22.97
2019-01-13T18:47:48.069Z,25.50
2019-01-13T18:50:19.693Z,25.30
2019-01-13T18:52:54.292Z,22.33
2019-01-13T18:55:22.701Z,18.13
2019-01-13T18:57:51.077Z,25.63
2019-01-13T19:00:23.957Z,22.80
2019-01-13T19:02:52.340Z,22.70
2019-01-13T19:05:23.271Z,21.83
2019-01-13T19:07:51.655Z,19.53
2019-01-13T19:10:26.441Z,18.87
2019-01-13T19:13:00.880Z,20.93
2019-01-13T19:15:29.277Z,23.97
2019-01-13T19:17:59.225Z,27.90
2019-01-13T19:20:28.039Z,22.47
2019-01-13T19:22:56.661Z,20.87
2019-01-13T19:25:25.122Z,28.30
2019-01-13T19:27:53.498Z,34.17
2019-01-13T19:30:21.894Z,21.17
2019-01-13T19:32:50.276Z,23.13
2019-01-13T19:35:18.746Z,27.37
2019-01-13T19:37:47.178Z,28.17
2019-01-13T19:40:17.476Z,25.70
2019-01-13T19:42:45.871Z,23.30
2019-01-13T19:45:17.269Z,25.47
2019-01-13T19:47:45.654Z,27.97
2019-01-13T19:50:19.059Z,28.40
2019-01-13T19:52:47.459Z,15.13
2019-01-13T19:55:16.773Z,26.47
2019-01-13T19:57:45.167Z,25.43
2019-01-13T20:00:28.302Z,30.17
2019-01-13T20:02:56.705Z,24.03
2019-01-13T20:05:25.151Z,22.87
2019-01-13T20:07:53.553Z,22.13
2019-01-13T20:10:22.613Z,22.80
2019-01-13T20:12:50.994Z,19.50
2019-01-13T20:15:20.924Z,23.03
2019-01-13T20:17:49.304Z,27.00
2019-01-13T20:20:19.240Z,24.83
2019-01-13T20:22:48.036Z,20.50
2019-01-13T20:25:17.758Z,21.97
2019-01-13T20:27:46.203Z,27.27
2019-01-13T20:30:23.143Z,25.80
2019-01-13T20:32:51.567Z,29.13
2019-01-13T20:35:20.007Z,25.73
2019-01-13T20:37:48.402Z,28.73
2019-01-13T20:40:17.661Z,22.07
2019-01-13T20:42:46.090Z,29.20
2019-01-13T20:45:20.786Z,27.93
2019-01-13T20:47:49.196Z,22.77
2019-01-13T20:50:17.606Z,25.33
2019-01-13T20:52:45.986Z,28.27
2019-01-13T20:55:15.565Z,33.60
2019-01-13T20:57:43.958Z,26.23
2019-01-13T21:00:15.476Z,17.13
2019-01-13T21:02:43.880Z,23.93
2019-01-13T21:05:12.291Z,23.73
2019-01-13T21:07:40.661Z,25.90
2019-01-13T21:10:14.212Z,24.33
2019-01-13T21:12:42.620Z,36.57
2019-01-13T21:15:22.880Z,33.00
2019-01-13T21:17:57.515Z,23.13
2019-01-13T21:20:21.301Z,29.80
2019-01-13T21:22:49.734Z,22.60
2019-01-13T21:25:18.123Z,29.97
2019-01-13T21:27:46.875Z,28.63
2019-01-13T21:30:26.762Z,28.67
2019-01-13T21:32:55.158Z,25.80
2019-01-13T21:35:23.547Z,32.27
2019-01-13T21:37:51.952Z,31.63
2019-01-13T21:40:20.325Z,30.30
2019-01-13T21:42:48.694Z,27.77
2019-01-13T21:45:19.582Z,23.33
2019-01-13T21:47:47.959Z,26.50
2019-01-13T21:50:19.142Z,32.03
2019-01-13T21:52:47.520Z,30.30
2019-01-13T21:55:17.626Z,21.73
2019-01-13T21:57:46.042Z,29.67
2019-01-13T22:00:23.265Z,24.47
2019-01-13T22:02:51.642Z,23.63
2019-01-13T22:05:20.023Z,19.73
2019-01-13T22:07:48.409Z,30.07
2019-01-13T22:10:18.621Z,23.67
2019-01-13T22:12:47.043Z,27.80
2019-01-13T22:15:19.795Z,20.07
2019-01-13T22:17:48.199Z,29.17
2019-01-13T22:20:19.202Z,20.53
2019-01-13T22:22:47.585Z,26.67
2019-01-13T22:25:16.984Z,23.30
2019-01-13T22:27:45.346Z,21.83
2019-01-13T22:30:15.799Z,22.23
2019-01-13T22:32:44.166Z,29.60
2019-01-13T22:35:12.575Z,26.40
2019-01-13T22:37:40.968Z,22.23
2019-01-13T22:40:14.391Z,22.00
2019-01-13T22:42:42.761Z,24.77
2019-01-13T22:45:22.496Z,24.27
2019-01-13T22:47:50.936Z,23.50
2019-01-13T22:50:19.672Z,23.80
2019-01-13T22:52:48.079Z,22.77
2019-01-13T22:55:16.455Z,30.93
2019-01-13T22:57:44.862Z,18.90
2019-01-13T23:00:35.584Z,22.77
2019-01-13T23:03:04.017Z,28.07
2019-01-13T23:05:32.418Z,29.50
2019-01-13T23:08:00.798Z,20.30
2019-01-13T23:10:29.192Z,30.87
2019-01-13T23:12:57.567Z,23.67
2019-01-13T23:15:25.959Z,24.17
2019-01-13T23:17:55.239Z,27.60
2019-01-13T23:20:23.638Z,20.03
2019-01-13T23:22:52.014Z,22.53
2019-01-13T23:25:20.411Z,24.90
2019-01-13T23:27:48.819Z,30.07
2019-01-13T23:30:17.211Z,30.93
2019-01-13T23:32:45.604Z,29.37
2019-01-13T23:35:13.982Z,21.87
2019-01-13T23:37:42.402Z,19.83
2019-01-13T23:40:10.801Z,21.97
2019-01-13T23:42:39.182Z,22.97
2019-01-13T23:45:08.314Z,25.60
2019-01-13T23:47:36.696Z,24.60
2019-01-13T23:50:08.585Z,23.10
2019-01-13T23:52:37.000Z,26.33
2019-01-13T23:55:05.772Z,30.30
2019-01-13T23:57:34.147Z,32.57
